This is the latest recevied weather packets stored in our database for station/object OSTR-WX. If no packets are shown the sender has not sent any weather packets the latest 10 day(s).
| Time | Temp. | Humidity | Pressure | Rain* | Wind** | Luminosity | Snow |
|---|---|---|---|---|---|---|---|
| 1777729576 | 25.56° C | 37% | 1021.4 hPa | - | - | - | - |
| 1777728619 | 26.11° C | 34% | 1021.5 hPa | - | - | - | - |
| 1777727662 | 26.67° C | 32% | 1021.6 hPa | - | - | - | - |
| 1777726705 | 26.11° C | 32% | 1021.9 hPa | - | - | - | - |
| 1777725748 | 26.11° C | 32% | 1022.1 hPa | - | - | - | - |
| 1777724791 | 24.44° C | 33% | 1022.5 hPa | - | - | - | - |
| 1777723834 | 24.44° C | 37% | 1022.8 hPa | - | - | - | - |
| 1777722879 | 25° C | 36% | 1022.9 hPa | - | - | - | - |
| 1777721927 | 25° C | 36% | 1023.1 hPa | - | - | - | - |
| 1777721920 | 25° C | 36% | 1023.1 hPa | - | - | - | - |
| 1777720962 | 25° C | 38% | 1023.3 hPa | - | - | - | - |
| 1777719055 | 23.89° C | 38% | 1023.7 hPa | - | - | - | - |
| 1777719049 | 23.89° C | 38% | 1023.7 hPa | - | - | - | - |
| 1777718098 | 23.33° C | 39% | 1023.9 hPa | - | - | - | - |
| 1777718091 | 23.33° C | 39% | 1023.9 hPa | - | - | - | - |
| 1777717135 | 22.78° C | 39% | 1024 hPa | - | - | - | - |
| 1777716177 | 22.78° C | 42% | 1024.1 hPa | - | - | - | - |
| 1777715221 | 22.22° C | 43% | 1024.4 hPa | - | - | - | - |
| 1777714263 | 21.67° C | 44% | 1024.8 hPa | - | - | - | - |
| 1777713307 | 21.11° C | 46% | 1024.9 hPa | - | - | - | - |
| 1777712356 | 20.56° C | 49% | 1025.2 hPa | - | - | - | - |
| 1777712351 | 20.56° C | 49% | 1025.2 hPa | - | - | - | - |
| 1777711395 | 20° C | 51% | 1025.3 hPa | - | - | - | - |
| 1777710437 | 19.44° C | 53% | 1025.5 hPa | - | - | - | - |
| 1777709480 | 18.33° C | 58% | 1025.7 hPa | - | - | - | - |
* Rain since midnight (hover to see other rain measurements)
** Current wind speed in m/s (hover to see current wind gust speed)